Huntington, TX (75949)

10:53 AM CDT on August 04, 2015 (GMT -0500)
Huntington, Texas | | Change Station
CLOSE
Current Station
Personal Weather Station
Location: Huntington, TX
Elevation: 274 ft
Nearby Weather Stations

Elev 274 ft 31.29 °N, 94.61 °W | Updated 8 minutes ago

Clear
Clear
90.5 °F
Feels Like 103 °F
N
4.0
Wind Variable Wind from SW
Gusts 5.0 mph

Today
High -- | Low -- °F
--% Chance of Precip.
Yesterday
High -- | Low -- °F
Precip. -- in
6:36 AM 8:11 PM
Waning Gibbous, 76% visible
Pressure 29.99 in
Visibility 10.0 miles
Clouds Clear
Heat Index 103 °F
Dew Point 76 °F
Humidity 63%
Rainfall 0.00 in
Snow Depth Not available.
UV 5 out of 12
Pollen 6.40 out of 12
Air Quality Not available.
Flu Activity Not available.
METAR KLFK 041453Z AUTO 27005KT 10SM CLR 29/23 A3000 RMK AO2 SLP154 6//// T02890233 $

More Conditions Fewer Conditions

Pressure 29.99 in
Visibility 10.0 miles
Clouds Clear
Heat Index 103 °F
Dew Point 76 °F
Humidity 63%
Rainfall 0.00 in
Snow Depth Not available.
UV 5 out of 12
Pollen 6.40 out of 12
Air Quality Not available.
Flu Activity Not available.
METAR KLFK 041453Z AUTO 27005KT 10SM CLR 29/23 A3000 RMK AO2 SLP154 6//// T02890233 $

More Conditions Fewer Conditions

10-Day Weather Forecast

×

Almanac

Astronomy

Aug. 04, 2015 Rise Set
Actual Time
Civil Twilight
Nautical Twilight
Astronomical Twilight
Moon
Length of Visible Light
Length of Day
Tomorrow will be .
, % of the Moon is Illuminated

Today's Extremes

State Highs State Lows

Community

WunderPhotos

Upload Photos

1,843,909 photos uploaded!

WunderBlogs® & News

Nearby

Air Quality

  Air Quality AQ Index Pollutant
Not available.

Snow Depth

Station Depth Elevation

Earthquake Activity

City Distance Mag. Time & Date
Minimum magnitude displayed is 2.5.

Coastal Water Temperatures

Place Temperature

Stations

Nearby Weather Stations

Station Location Temp. Windchill Dew Point Humidity Wind Precip. Elev Updated Type